Time;durP1;ratioP1;P1;durP2;ratioP2;P2;SDS_P1;SDS_P2;PMS_P1;PMS_P2;Temp;Humidity;BMP_temperature;BMP_pressure;BME280_temperature;BME280_humidity;BME280_pressure;Samples;Min_cycle;Max_cycle;Signal;HPM_P1;HPM_P2
2021/05/06 00:30:00;;;;;;;3.05;2.50;;;;;;;;;;4143874;34;20753;-69
2021/05/06 00:32:34;;;;;;;3.05;2.10;;;;;;;;;;4149236;34;20095;-69
2021/05/06 00:35:00;;;;;;;5.57;2.85;;;;;;;;;;4149259;34;20114;-68
2021/05/06 00:37:26;;;;;;;5.87;2.60;;;;;;;;;;4137893;34;20122;-69
2021/05/06 00:40:00;;;;;;;8.57;2.60;;;;;;;;;;4125321;34;20178;-68
2021/05/06 00:43:41;;;;;;;5.35;2.67;;;;;;;;;;4126340;34;20128;-69
2021/05/06 01:01:55;;;;;;;7.10;3.67;;;;;;;;;;4128423;34;20521;-69
2021/05/06 01:04:38;;;;;;;7.07;3.22;;;;;;;;;;4124422;34;20179;-69
2021/05/06 01:12:36;;;;;;;4.12;3.35;;;;;;;;;;4124343;34;20546;-68
2021/05/06 01:15:03;;;;;;;5.03;2.85;;;;;;;;;;4122974;34;20196;-69
2021/05/06 01:17:29;;;;;;;8.30;3.28;;;;;;;;;;4124574;34;20199;-69
2021/05/06 01:19:55;;;;;;;5.43;3.33;;;;;;;;;;4122907;34;20136;-69
2021/05/06 01:22:21;;;;;;;4.65;3.35;;;;;;;;;;4124111;34;20127;-69
2021/05/06 01:24:54;;;;;;;5.57;2.90;;;;;;;;;;4123047;34;20132;-69
2021/05/06 01:27:26;;;;;;;4.18;3.05;;;;;;;;;;4111426;34;20127;-69
2021/05/06 01:30:09;;;;;;;4.07;2.92;;;;;;;;;;4123193;34;20160;-69
2021/05/06 01:35:17;;;;;;;6.75;3.15;;;;;;;;;;4122932;34;20118;-69
2021/05/06 01:38:07;;;;;;;8.55;3.08;;;;;;;;;;4121487;34;20556;-69
2021/05/06 01:43:37;;;;;;;4.47;3.20;;;;;;;;;;4124117;34;19984;-69
2021/05/06 01:59:15;;;;;;;6.10;2.78;;;;;;;;;;4124257;34;20452;-68
2021/05/06 02:01:41;;;;;;;4.32;3.30;;;;;;;;;;4129206;34;20215;-68
2021/05/06 02:04:07;;;;;;;7.85;2.72;;;;;;;;;;4138061;34;20096;-68
2021/05/06 02:06:33;;;;;;;6.75;3.58;;;;;;;;;;4150628;34;20104;-68
2021/05/06 02:08:59;;;;;;;7.47;3.05;;;;;;;;;;4150936;34;20503;-68
2021/05/06 02:11:25;;;;;;;8.13;3.50;;;;;;;;;;4150888;34;20110;-68
2021/05/06 02:13:53;;;;;;;3.62;2.90;;;;;;;;;;4138283;34;20508;-68
2021/05/06 02:16:29;;;;;;;6.22;3.37;;;;;;;;;;4150782;34;20146;-68
2021/05/06 02:18:55;;;;;;;8.70;3.53;;;;;;;;;;4150874;34;20182;-68
2021/05/06 02:21:21;;;;;;;5.18;3.08;;;;;;;;;;4149281;34;20102;-68
2021/05/06 02:23:47;;;;;;;9.40;3.10;;;;;;;;;;4138099;34;20103;-68
2021/05/06 02:26:13;;;;;;;6.43;3.15;;;;;;;;;;4138066;34;20531;-68
2021/05/06 02:28:39;;;;;;;4.03;2.90;;;;;;;;;;4127861;34;20123;-68
2021/05/06 02:31:05;;;;;;;4.00;2.97;;;;;;;;;;4123744;34;20135;-68
2021/05/06 02:33:31;;;;;;;9.60;3.03;;;;;;;;;;4123974;34;20124;-69
2021/05/06 02:36:00;;;;;;;7.15;3.10;;;;;;;;;;4123669;34;20559;-68
2021/05/06 02:38:28;;;;;;;4.15;2.80;;;;;;;;;;4111851;34;20116;-68
2021/05/06 02:41:00;;;;;;;5.07;2.90;;;;;;;;;;4123858;34;20095;-68
2021/05/06 02:43:27;;;;;;;7.10;2.78;;;;;;;;;;4122554;34;20209;-68
2021/05/06 02:45:56;;;;;;;4.68;2.62;;;;;;;;;;4122205;34;20100;-68
2021/05/06 02:48:25;;;;;;;6.32;2.80;;;;;;;;;;4123702;34;20436;-68
2021/05/06 02:50:56;;;;;;;4.70;3.08;;;;;;;;;;4122251;34;20135;-68
2021/05/06 02:53:25;;;;;;;3.65;2.95;;;;;;;;;;4123583;34;20119;-68
2021/05/06 03:03:45;;;;;;;3.37;2.60;;;;;;;;;;4123723;34;20116;-68
2021/05/06 03:06:29;;;;;;;6.05;3.45;;;;;;;;;;4123373;34;20104;-68
2021/05/06 03:08:59;;;;;;;5.22;2.65;;;;;;;;;;4123418;34;20574;-68
2021/05/06 03:11:44;;;;;;;4.10;3.03;;;;;;;;;;4122090;34;20120;-68
2021/05/06 03:25:14;;;;;;;2.50;2.30;;;;;;;;;;4123303;34;20625;-68
2021/05/06 04:16:20;;;;;;;2.70;2.10;;;;;;;;;;4126651;34;20218;-68
2021/05/06 04:18:54;;;;;;;4.20;2.03;;;;;;;;;;4138263;34;20123;-68
2021/05/06 04:21:39;;;;;;;3.20;2.00;;;;;;;;;;4126661;34;20449;-68
2021/05/06 04:27:03;;;;;;;1.65;1.50;;;;;;;;;;4126823;34;20187;-68
2021/05/06 04:37:47;;;;;;;2.67;2.22;;;;;;;;;;4140255;34;20106;-68
2021/05/06 04:40:23;;;;;;;2.20;2.00;;;;;;;;;;4139538;34;20161;-68
2021/05/06 04:43:25;;;;;;;3.33;2.12;;;;;;;;;;4151390;34;20464;-67
2021/05/06 04:54:22;;;;;;;3.08;1.50;;;;;;;;;;4147325;34;20526;-68
2021/05/06 04:57:15;;;;;;;4.80;2.30;;;;;;;;;;4151788;34;20199;-71
2021/05/06 05:05:34;;;;;;;5.50;2.12;;;;;;;;;;4145570;34;20104;-72
2021/05/06 05:08:18;;;;;;;2.62;1.90;;;;;;;;;;4144538;34;20119;-72
2021/05/06 05:20:49;;;;;;;3.22;2.00;;;;;;;;;;4126514;34;20191;-66
2021/05/06 05:23:50;;;;;;;3.40;2.10;;;;;;;;;;4136333;34;20192;-66
2021/05/06 05:26:31;;;;;;;1.67;1.50;;;;;;;;;;4138250;34;20551;-66
2021/05/06 05:28:57;;;;;;;4.28;1.33;;;;;;;;;;4126163;34;20288;-66
2021/05/06 05:31:24;;;;;;;2.53;2.05;;;;;;;;;;4124103;34;20138;-63
2021/05/06 05:33:58;;;;;;;4.93;2.00;;;;;;;;;;4135967;34;20186;-64
2021/05/06 05:36:28;;;;;;;2.25;1.73;;;;;;;;;;4130100;34;20541;-60
2021/05/06 05:39:18;;;;;;;6.35;3.65;;;;;;;;;;4133355;34;20542;-64
2021/05/06 05:57:42;;;;;;;7.10;2.25;;;;;;;;;;4136618;29;20135;-62
2021/05/06 06:00:16;;;;;;;4.80;3.00;;;;;;;;;;4114003;34;20108;-65
2021/05/06 06:02:48;;;;;;;4.60;2.47;;;;;;;;;;4105354;34;20104;-66
2021/05/06 06:05:15;;;;;;;3.53;2.40;;;;;;;;;;4135777;34;20221;-63
2021/05/06 06:07:48;;;;;;;3.62;2.10;;;;;;;;;;4112166;34;20119;-62
2021/05/06 06:10:16;;;;;;;8.00;2.42;;;;;;;;;;4130625;34;20238;-63
2021/05/06 06:12:50;;;;;;;1.75;1.62;;;;;;;;;;4129992;34;20193;-64
2021/05/06 06:23:58;;;;;;;5.32;2.15;;;;;;;;;;4134255;34;20131;-67
2021/05/06 06:26:31;;;;;;;4.40;2.55;;;;;;;;;;4113546;34;20130;-61
2021/05/06 06:29:12;;;;;;;5.45;1.80;;;;;;;;;;4128669;34;20119;-64
2021/05/06 06:31:51;;;;;;;7.93;2.42;;;;;;;;;;4130417;34;20445;-61
2021/05/06 06:34:29;;;;;;;4.70;2.20;;;;;;;;;;4129113;34;20193;-62
2021/05/06 06:36:58;;;;;;;2.87;1.83;;;;;;;;;;4118138;34;20120;-62
2021/05/06 06:39:36;;;;;;;2.47;2.00;;;;;;;;;;4118693;34;20195;-62
2021/05/06 06:42:07;;;;;;;3.22;2.05;;;;;;;;;;4117000;34;20594;-66
2021/05/06 06:44:36;;;;;;;5.97;2.22;;;;;;;;;;4124335;34;20107;-62
2021/05/06 06:47:08;;;;;;;2.10;1.90;;;;;;;;;;4112443;34;20113;-61
2021/05/06 06:49:58;;;;;;;3.03;2.05;;;;;;;;;;4117002;34;20199;-64
2021/05/06 06:52:24;;;;;;;5.40;2.25;;;;;;;;;;4135710;34;20118;-63
2021/05/06 06:54:53;;;;;;;6.03;2.58;;;;;;;;;;4124369;34;20501;-64
2021/05/06 06:57:20;;;;;;;1.37;1.20;;;;;;;;;;4127775;34;20213;-64
2021/05/06 06:59:47;;;;;;;4.60;1.90;;;;;;;;;;4130846;34;20119;-62
2021/05/06 07:02:18;;;;;;;3.00;2.03;;;;;;;;;;4125208;34;20127;-62
2021/05/06 07:04:54;;;;;;;2.05;1.90;;;;;;;;;;4111870;34;20516;-64
2021/05/06 07:07:21;;;;;;;3.47;1.95;;;;;;;;;;4127243;34;20111;-62
2021/05/06 07:09:49;;;;;;;7.85;2.40;;;;;;;;;;4129918;34;20147;-65
2021/05/06 07:12:18;;;;;;;6.85;1.87;;;;;;;;;;4137173;34;20127;-63
2021/05/06 07:14:48;;;;;;;7.90;2.50;;;;;;;;;;4124912;34;20134;-64
2021/05/06 07:17:22;;;;;;;2.37;2.12;;;;;;;;;;4120205;34;20227;-61
2021/05/06 07:20:10;;;;;;;4.25;2.45;;;;;;;;;;4125857;34;20111;-64
2021/05/06 07:23:23;;;;;;;8.25;2.83;;;;;;;;;;4107285;34;20165;-64
2021/05/06 07:25:59;;;;;;;25.15;5.53;;;;;;;;;;4096758;34;20146;-62
2021/05/06 07:28:32;;;;;;;6.37;3.03;;;;;;;;;;4117440;34;20095;-64
2021/05/06 07:31:01;;;;;;;5.47;2.25;;;;;;;;;;4120563;34;20179;-60
2021/05/06 07:33:28;;;;;;;2.75;2.15;;;;;;;;;;4121239;34;20118;-65
2021/05/06 07:35:56;;;;;;;5.37;4.00;;;;;;;;;;4121202;34;20133;-64
2021/05/06 07:38:24;;;;;;;14.55;6.07;;;;;;;;;;4121250;34;20116;-63
2021/05/06 07:40:51;;;;;;;4.97;2.83;;;;;;;;;;4120989;34;20148;-60
2021/05/06 07:43:18;;;;;;;4.12;1.85;;;;;;;;;;4120730;34;20210;-63
2021/05/06 07:45:45;;;;;;;8.13;4.10;;;;;;;;;;4109465;34;20636;-63
2021/05/06 07:48:12;;;;;;;9.60;3.58;;;;;;;;;;4109971;34;20115;-60
2021/05/06 07:50:39;;;;;;;8.77;2.90;;;;;;;;;;4120977;34;20531;-63
2021/05/06 07:53:15;;;;;;;7.72;3.10;;;;;;;;;;4121045;34;20122;-64
2021/05/06 07:55:46;;;;;;;2.45;1.90;;;;;;;;;;4120674;34;20531;-65
2021/05/06 07:58:13;;;;;;;9.30;3.90;;;;;;;;;;4121188;34;20563;-64
2021/05/06 08:00:43;;;;;;;19.62;7.43;;;;;;;;;;4134382;34;20456;-65
2021/05/06 08:03:10;;;;;;;10.68;4.78;;;;;;;;;;4133587;34;20106;-61
2021/05/06 08:05:36;;;;;;;4.35;2.20;;;;;;;;;;4137913;34;20099;-64
2021/05/06 08:08:05;;;;;;;3.15;2.25;;;;;;;;;;4133028;34;20123;-64
2021/05/06 08:10:32;;;;;;;7.18;2.53;;;;;;;;;;4140353;34;20183;-62
2021/05/06 08:13:02;;;;;;;8.43;2.80;;;;;;;;;;4135756;34;20131;-64
2021/05/06 08:15:32;;;;;;;8.57;3.62;;;;;;;;;;4140800;34;20227;-64
2021/05/06 08:18:04;;;;;;;2.97;2.10;;;;;;;;;;4131623;34;20124;-63
2021/05/06 08:20:34;;;;;;;4.50;2.58;;;;;;;;;;4142965;34;20094;-65
2021/05/06 08:23:06;;;;;;;3.78;2.33;;;;;;;;;;4143321;34;20571;-64
2021/05/06 08:25:34;;;;;;;9.15;2.90;;;;;;;;;;4137507;34;20520;-65
2021/05/06 08:28:00;;;;;;;12.45;4.25;;;;;;;;;;4149617;34;20544;-65
2021/05/06 08:30:31;;;;;;;8.38;2.58;;;;;;;;;;4141737;34;20187;-62
2021/05/06 08:32:57;;;;;;;4.05;2.47;;;;;;;;;;4141321;34;20509;-62
2021/05/06 08:35:24;;;;;;;8.45;4.30;;;;;;;;;;4148071;34;20109;-62
2021/05/06 08:37:52;;;;;;;8.48;3.50;;;;;;;;;;4136231;34;20099;-64
2021/05/06 08:40:18;;;;;;;8.90;3.20;;;;;;;;;;4140769;34;20171;-62
2021/05/06 08:42:54;;;;;;;4.93;1.90;;;;;;;;;;4151584;34;20103;-61
2021/05/06 08:45:25;;;;;;;4.78;2.10;;;;;;;;;;4133393;34;20114;-65
2021/05/06 08:47:51;;;;;;;6.25;2.25;;;;;;;;;;4137688;34;20221;-63
2021/05/06 08:50:18;;;;;;;8.75;2.92;;;;;;;;;;4125654;34;20456;-64
2021/05/06 08:53:01;;;;;;;4.43;2.03;;;;;;;;;;4141899;34;20099;-63
2021/05/06 08:55:34;;;;;;;4.68;1.95;;;;;;;;;;4145541;34;20442;-65
2021/05/06 08:58:06;;;;;;;8.90;3.65;;;;;;;;;;4144370;34;20123;-61
2021/05/06 09:00:40;;;;;;;11.80;3.78;;;;;;;;;;4136659;34;20232;-65
2021/05/06 09:03:06;;;;;;;5.32;2.22;;;;;;;;;;4147808;34;20128;-65
2021/05/06 09:05:35;;;;;;;3.47;2.40;;;;;;;;;;4144829;34;20142;-64
2021/05/06 09:08:07;;;;;;;12.07;2.15;;;;;;;;;;4143449;34;20091;-63
2021/05/06 09:10:39;;;;;;;3.22;1.87;;;;;;;;;;4151579;34;20130;-64
2021/05/06 09:13:34;;;;;;;4.12;2.53;;;;;;;;;;4141608;34;20111;-65
2021/05/06 09:16:07;;;;;;;3.65;1.85;;;;;;;;;;4149186;34;20109;-65
2021/05/06 09:18:42;;;;;;;1.48;1.37;;;;;;;;;;4146828;34;20456;-62
2021/05/06 09:21:10;;;;;;;1.55;1.45;;;;;;;;;;4141494;34;20107;-64
2021/05/06 09:23:38;;;;;;;4.28;2.67;;;;;;;;;;4143257;34;20459;-61
2021/05/06 09:26:06;;;;;;;2.70;1.70;;;;;;;;;;4171290;29;20145;-64
2021/05/06 09:28:34;;;;;;;2.08;1.80;;;;;;;;;;4153622;34;20508;-65
2021/05/06 09:31:00;;;;;;;5.10;2.37;;;;;;;;;;4139161;34;20115;-64
2021/05/06 09:33:36;;;;;;;3.75;1.75;;;;;;;;;;4154783;34;20137;-61
2021/05/06 09:36:10;;;;;;;4.00;2.30;;;;;;;;;;4163322;34;20126;-65
2021/05/06 09:38:38;;;;;;;3.42;1.77;;;;;;;;;;4155274;34;20115;-64
2021/05/06 09:41:05;;;;;;;3.92;2.03;;;;;;;;;;4146940;34;20472;-64
2021/05/06 09:43:41;;;;;;;1.40;1.30;;;;;;;;;;4151192;34;20190;-65
2021/05/06 09:46:35;;;;;;;1.77;1.67;;;;;;;;;;4148494;34;20479;-66
2021/05/06 09:49:14;;;;;;;10.93;2.47;;;;;;;;;;4164802;34;20232;-62
2021/05/06 09:51:50;;;;;;;1.60;1.33;;;;;;;;;;4164385;34;20118;-65
2021/05/06 09:54:24;;;;;;;2.62;1.83;;;;;;;;;;4152130;34;20136;-66
2021/05/06 09:57:02;;;;;;;2.45;1.60;;;;;;;;;;4164606;34;20097;-65
2021/05/06 09:59:45;;;;;;;3.80;2.10;;;;;;;;;;4164604;34;20095;-65
2021/05/06 10:02:32;;;;;;;1.48;1.37;;;;;;;;;;4159358;34;20118;-65
2021/05/06 10:05:05;;;;;;;2.30;1.90;;;;;;;;;;4141378;34;20107;-65
2021/05/06 10:07:31;;;;;;;2.50;1.90;;;;;;;;;;4164560;34;20125;-63
2021/05/06 10:10:02;;;;;;;3.00;1.48;;;;;;;;;;4156441;34;20204;-65
2021/05/06 10:12:29;;;;;;;1.60;1.50;;;;;;;;;;4151083;34;20206;-65
2021/05/06 10:14:55;;;;;;;1.42;1.33;;;;;;;;;;4151039;34;20123;-63
2021/05/06 10:17:22;;;;;;;3.87;1.98;;;;;;;;;;4151109;34;20122;-63
2021/05/06 10:19:54;;;;;;;1.60;1.50;;;;;;;;;;4163722;34;20696;-65
2021/05/06 10:22:21;;;;;;;6.25;2.00;;;;;;;;;;4144535;34;20103;-65
2021/05/06 10:24:48;;;;;;;2.10;1.65;;;;;;;;;;4142199;34;20515;-65
2021/05/06 10:27:16;;;;;;;3.15;1.83;;;;;;;;;;4160712;34;20106;-64
2021/05/06 10:29:42;;;;;;;4.32;2.80;;;;;;;;;;4140172;34;20119;-62
2021/05/06 10:32:09;;;;;;;1.92;1.65;;;;;;;;;;4154153;34;20547;-61
2021/05/06 10:34:34;;;;;;;3.80;2.28;;;;;;;;;;4163751;34;20191;-62
2021/05/06 10:37:01;;;;;;;1.20;1.10;;;;;;;;;;4151053;34;20087;-61
2021/05/06 10:39:43;;;;;;;3.92;1.80;;;;;;;;;;4148884;34;20459;-63
2021/05/06 10:42:25;;;;;;;3.08;2.30;;;;;;;;;;4155858;34;20111;-65
2021/05/06 10:44:52;;;;;;;1.55;1.17;;;;;;;;;;4152193;34;20522;-61
2021/05/06 10:47:18;;;;;;;1.65;1.55;;;;;;;;;;4150135;34;20095;-65
2021/05/06 10:49:44;;;;;;;2.25;1.87;;;;;;;;;;4163489;34;20227;-65
2021/05/06 10:52:11;;;;;;;1.20;1.20;;;;;;;;;;4164759;34;20178;-63
2021/05/06 10:54:48;;;;;;;3.47;1.80;;;;;;;;;;4164263;34;20206;-61
2021/05/06 10:57:15;;;;;;;2.60;1.77;;;;;;;;;;4152192;34;20314;-61
2021/05/06 10:59:42;;;;;;;2.78;2.17;;;;;;;;;;4164423;34;20118;-62
2021/05/06 11:02:09;;;;;;;4.05;2.00;;;;;;;;;;4151901;34;20512;-63
2021/05/06 11:04:37;;;;;;;2.50;2.00;;;;;;;;;;4163302;34;20264;-63
2021/05/06 11:07:13;;;;;;;7.47;2.55;;;;;;;;;;4164088;34;20126;-62
2021/05/06 11:09:46;;;;;;;;;;;;;;;;;;4163854;34;20206;-62
2021/05/06 11:12:15;;;;;;;1.70;1.60;;;;;;;;;;4155807;34;20002;-65
2021/05/06 11:15:00;;;;;;;1.58;1.48;;;;;;;;;;4154907;34;20095;-65
2021/05/06 11:17:32;;;;;;;1.70;1.27;;;;;;;;;;4150325;34;20225;-62
2021/05/06 11:19:59;;;;;;;3.30;1.70;;;;;;;;;;4155839;34;20107;-61
2021/05/06 11:22:51;;;;;;;2.92;2.20;;;;;;;;;;4150231;34;20134;-61
2021/05/06 11:25:34;;;;;;;2.87;1.90;;;;;;;;;;4150055;34;20206;-62
2021/05/06 11:28:01;;;;;;;1.62;1.52;;;;;;;;;;4157273;34;20090;-63
2021/05/06 11:30:45;;;;;;;4.60;1.75;;;;;;;;;;4149830;34;20198;-65
2021/05/06 11:33:18;;;;;;;1.23;1.23;;;;;;;;;;4150228;34;20102;-61
2021/05/06 11:36:08;;;;;;;2.15;1.90;;;;;;;;;;4137427;34;20455;-62
2021/05/06 11:38:34;;;;;;;1.45;1.25;;;;;;;;;;4150223;34;20211;-62
2021/05/06 11:41:03;;;;;;;1.37;1.27;;;;;;;;;;4150584;34;20104;-65
2021/05/06 11:43:30;;;;;;;2.15;1.87;;;;;;;;;;4150129;34;20205;-63
2021/05/06 11:46:08;;;;;;;5.30;2.08;;;;;;;;;;4161948;34;20142;-64
2021/05/06 11:48:38;;;;;;;10.50;2.22;;;;;;;;;;4163825;34;20126;-63
2021/05/06 11:51:08;;;;;;;2.53;2.25;;;;;;;;;;4150886;34;20205;-62
2021/05/06 11:53:35;;;;;;;1.52;1.42;;;;;;;;;;4163814;34;20115;-68
2021/05/06 11:56:13;;;;;;;2.95;1.80;;;;;;;;;;4161727;34;20207;-63
2021/05/06 11:58:40;;;;;;;1.52;1.40;;;;;;;;;;4156250;34;20122;-65
2021/05/06 12:01:06;;;;;;;2.33;1.62;;;;;;;;;;4155898;34;20107;-68
2021/05/06 12:03:37;;;;;;;1.55;1.45;;;;;;;;;;4162262;34;20438;-68
2021/05/06 12:06:03;;;;;;;1.73;1.48;;;;;;;;;;4153195;34;20200;-62
2021/05/06 12:08:34;;;;;;;2.47;1.77;;;;;;;;;;4149952;34;20582;-61
2021/05/06 12:11:02;;;;;;;1.70;1.60;;;;;;;;;;4149734;34;20122;-65
2021/05/06 12:13:32;;;;;;;1.20;1.12;;;;;;;;;;4153491;34;20118;-62
2021/05/06 12:16:18;;;;;;;6.00;1.87;;;;;;;;;;4164286;34;20095;-66
2021/05/06 12:19:01;;;;;;;;;;;;;;;;;;4164656;34;20193;-63
2021/05/06 12:21:28;;;;;;;4.37;2.17;;;;;;;;;;4165283;34;19998;-68
2021/05/06 12:23:54;;;;;;;7.37;2.50;;;;;;;;;;4164831;34;20313;-64
2021/05/06 12:26:20;;;;;;;3.35;2.17;;;;;;;;;;4165031;34;20126;-66
2021/05/06 12:28:47;;;;;;;2.08;1.83;;;;;;;;;;4165230;34;20514;-63
2021/05/06 12:31:13;;;;;;;1.85;1.73;;;;;;;;;;4157790;34;20146;-62
2021/05/06 12:33:38;;;;;;;2.85;1.67;;;;;;;;;;4151811;34;20111;-64
2021/05/06 12:36:05;;;;;;;1.52;1.42;;;;;;;;;;4152007;34;20131;-65
2021/05/06 12:38:31;;;;;;;2.33;1.70;;;;;;;;;;4139309;34;20534;-61
2021/05/06 12:40:57;;;;;;;2.10;1.80;;;;;;;;;;4139191;34;20135;-62
2021/05/06 12:43:32;;;;;;;2.40;1.75;;;;;;;;;;4139132;34;20130;-65
2021/05/06 12:46:07;;;;;;;4.07;2.45;;;;;;;;;;4151512;34;20201;-67
2021/05/06 12:48:44;;;;;;;3.25;2.25;;;;;;;;;;4164671;34;20121;-62
2021/05/06 12:51:12;;;;;;;4.10;3.05;;;;;;;;;;4163502;34;20141;-61
2021/05/06 12:53:59;;;;;;;2.30;1.92;;;;;;;;;;4163839;34;20246;-67
2021/05/06 12:56:26;;;;;;;7.43;2.80;;;;;;;;;;4163177;34;20234;-62
2021/05/06 12:58:52;;;;;;;4.25;2.58;;;;;;;;;;4159896;34;20109;-61
2021/05/06 13:01:33;;;;;;;7.70;3.00;;;;;;;;;;4152261;34;20175;-64
2021/05/06 13:04:16;;;;;;;4.15;2.80;;;;;;;;;;4163772;34;20103;-63
2021/05/06 13:06:43;;;;;;;8.82;3.22;;;;;;;;;;4164165;34;20114;-64
2021/05/06 13:09:13;;;;;;;4.55;2.70;;;;;;;;;;4154917;34;20126;-63
2021/05/06 13:11:39;;;;;;;6.65;3.42;;;;;;;;;;4138733;34;20107;-66
2021/05/06 13:14:05;;;;;;;6.80;3.60;;;;;;;;;;4163864;34;20118;-64
2021/05/06 13:16:53;;;;;;;6.32;3.05;;;;;;;;;;4164831;34;20114;-66
2021/05/06 13:19:20;;;;;;;3.22;2.30;;;;;;;;;;4153392;34;20127;-62
2021/05/06 13:21:53;;;;;;;2.58;1.77;;;;;;;;;;4144852;34;20219;-64
2021/05/06 13:24:20;;;;;;;3.50;2.17;;;;;;;;;;4151599;34;20103;-63
2021/05/06 13:26:47;;;;;;;2.08;1.87;;;;;;;;;;4138336;34;20118;-64
2021/05/06 13:29:15;;;;;;;4.82;3.05;;;;;;;;;;4151162;34;20141;-67
2021/05/06 13:31:49;;;;;;;6.72;3.20;;;;;;;;;;4155738;34;20095;-62
2021/05/06 13:34:21;;;;;;;3.35;2.00;;;;;;;;;;4142395;34;20123;-63
2021/05/06 13:37:06;;;;;;;2.62;2.30;;;;;;;;;;4163758;34;20099;-66
2021/05/06 13:39:33;;;;;;;3.33;2.67;;;;;;;;;;4148324;34;20107;-66
2021/05/06 13:41:59;;;;;;;4.12;2.35;;;;;;;;;;4151150;34;20127;-62
2021/05/06 13:44:29;;;;;;;3.22;2.00;;;;;;;;;;4149977;34;20194;-66
2021/05/06 13:46:56;;;;;;;4.87;2.60;;;;;;;;;;4151231;34;20106;-66
2021/05/06 13:49:23;;;;;;;5.12;2.30;;;;;;;;;;4150144;34;20525;-63
2021/05/06 13:51:50;;;;;;;5.15;2.37;;;;;;;;;;4164907;34;20193;-65
2021/05/06 13:54:17;;;;;;;2.47;2.00;;;;;;;;;;4152300;34;20110;-63
2021/05/06 13:56:43;;;;;;;3.47;2.25;;;;;;;;;;4164804;34;20083;-66
2021/05/06 13:59:09;;;;;;;4.53;1.98;;;;;;;;;;4152253;34;20138;-63
2021/05/06 14:01:35;;;;;;;2.55;2.00;;;;;;;;;;4164505;34;20098;-63
2021/05/06 14:04:01;;;;;;;4.50;1.90;;;;;;;;;;4164685;34;20548;-63
2021/05/06 14:06:27;;;;;;;3.33;2.15;;;;;;;;;;4164186;34;20130;-63
2021/05/06 14:08:53;;;;;;;3.92;2.28;;;;;;;;;;4164514;34;20145;-66
2021/05/06 14:11:29;;;;;;;4.57;2.92;;;;;;;;;;4164636;34;20109;-63
2021/05/06 14:13:59;;;;;;;1.80;1.60;;;;;;;;;;4153045;34;20118;-67
2021/05/06 14:16:26;;;;;;;3.15;2.50;;;;;;;;;;4164728;34;20126;-63
2021/05/06 14:18:54;;;;;;;2.40;1.73;;;;;;;;;;4152004;34;20442;-63
2021/05/06 14:21:22;;;;;;;3.55;2.28;;;;;;;;;;4164582;34;20117;-65
2021/05/06 14:23:49;;;;;;;5.07;2.00;;;;;;;;;;4164697;34;20510;-65
2021/05/06 14:26:15;;;;;;;9.40;2.10;;;;;;;;;;4164178;34;20196;-65
2021/05/06 14:28:41;;;;;;;3.92;2.17;;;;;;;;;;4164709;34;20094;-65
2021/05/06 14:31:09;;;;;;;5.53;2.35;;;;;;;;;;4162959;34;20110;-65
2021/05/06 14:33:35;;;;;;;2.40;2.00;;;;;;;;;;4163341;34;20196;-65
2021/05/06 14:36:05;;;;;;;3.10;2.37;;;;;;;;;;4145014;34;20126;-64
2021/05/06 14:38:31;;;;;;;7.70;2.30;;;;;;;;;;4156228;34;20110;-63
2021/05/06 14:40:58;;;;;;;6.40;2.20;;;;;;;;;;4164218;34;20110;-62
2021/05/06 14:43:23;;;;;;;7.62;2.25;;;;;;;;;;4155019;34;20144;-62
2021/05/06 14:45:49;;;;;;;1.77;1.52;;;;;;;;;;4150480;34;20116;-67
2021/05/06 14:48:16;;;;;;;4.93;2.50;;;;;;;;;;4138175;34;20542;-66
2021/05/06 14:51:03;;;;;;;17.40;2.12;;;;;;;;;;4139092;34;20118;-65
2021/05/06 14:53:43;;;;;;;6.45;2.75;;;;;;;;;;4152442;34;20550;-64
2021/05/06 14:56:24;;;;;;;2.35;1.87;;;;;;;;;;4160561;34;20099;-64
2021/05/06 14:58:56;;;;;;;3.33;2.22;;;;;;;;;;4156362;34;20503;-65
2021/05/06 15:01:25;;;;;;;7.30;2.55;;;;;;;;;;4159104;34;20106;-67
2021/05/06 15:03:59;;;;;;;4.62;1.80;;;;;;;;;;4142252;34;20507;-64
2021/05/06 15:06:36;;;;;;;4.20;2.20;;;;;;;;;;4149602;34;20119;-64
2021/05/06 15:09:08;;;;;;;4.35;3.15;;;;;;;;;;4151038;34;20111;-64
2021/05/06 15:11:38;;;;;;;4.60;1.80;;;;;;;;;;4139707;34;20115;-64
2021/05/06 15:14:09;;;;;;;7.07;1.90;;;;;;;;;;4138112;34;20119;-68
2021/05/06 15:16:43;;;;;;;1.50;1.40;;;;;;;;;;4150689;34;20195;-63
2021/05/06 15:19:13;;;;;;;2.12;1.90;;;;;;;;;;4141501;34;20129;-62
2021/05/06 15:21:49;;;;;;;1.65;1.55;;;;;;;;;;4151370;34;20626;-62
2021/05/06 15:24:29;;;;;;;2.67;2.47;;;;;;;;;;4156239;34;20110;-65
2021/05/06 15:27:00;;;;;;;4.75;2.55;;;;;;;;;;4133858;34;20110;-68
2021/05/06 15:29:27;;;;;;;5.87;3.22;;;;;;;;;;4142623;34;20104;-68
2021/05/06 15:31:54;;;;;;;2.12;1.67;;;;;;;;;;4150336;34;20119;-64
2021/05/06 15:34:22;;;;;;;2.37;1.80;;;;;;;;;;4158108;34;20133;-64
2021/05/06 15:36:49;;;;;;;2.62;2.05;;;;;;;;;;4163195;34;20121;-67
2021/05/06 15:39:18;;;;;;;3.67;1.95;;;;;;;;;;4143462;34;20209;-64
2021/05/06 15:41:44;;;;;;;1.15;1.15;;;;;;;;;;4157626;34;20130;-64
2021/05/06 15:44:11;;;;;;;1.92;1.83;;;;;;;;;;4148113;34;20134;-63
2021/05/06 15:46:38;;;;;;;5.62;2.20;;;;;;;;;;4141046;34;20137;-66
2021/05/06 15:49:05;;;;;;;2.28;2.08;;;;;;;;;;4150279;34;20118;-64
2021/05/06 15:51:31;;;;;;;2.47;1.58;;;;;;;;;;4150419;34;20130;-63
2021/05/06 15:53:58;;;;;;;2.75;1.75;;;;;;;;;;4152589;34;20119;-66
2021/05/06 15:56:24;;;;;;;1.40;1.30;;;;;;;;;;4152503;34;20223;-66
2021/05/06 15:58:52;;;;;;;5.10;2.35;;;;;;;;;;4152354;34;20484;-66
2021/05/06 16:01:20;;;;;;;2.47;1.52;;;;;;;;;;4152535;34;20186;-64
2021/05/06 16:03:50;;;;;;;1.90;1.80;;;;;;;;;;4152153;34;20119;-65
2021/05/06 16:06:18;;;;;;;4.35;2.50;;;;;;;;;;4139620;34;20098;-63
2021/05/06 16:08:44;;;;;;;4.65;2.47;;;;;;;;;;4151070;34;20127;-62
2021/05/06 16:11:10;;;;;;;1.98;1.33;;;;;;;;;;4141944;34;20186;-63
2021/05/06 16:13:36;;;;;;;1.15;1.15;;;;;;;;;;4165521;34;20142;-66
2021/05/06 16:16:02;;;;;;;1.48;1.37;;;;;;;;;;4165846;34;20118;-64
2021/05/06 16:18:28;;;;;;;2.50;2.20;;;;;;;;;;4165472;34;20146;-67
2021/05/06 16:20:55;;;;;;;2.72;2.12;;;;;;;;;;4165511;34;20626;-66
2021/05/06 16:23:23;;;;;;;2.58;1.83;;;;;;;;;;4165571;34;20565;-67
2021/05/06 16:25:49;;;;;;;0.93;0.93;;;;;;;;;;4152634;34;20134;-65
2021/05/06 16:28:15;;;;;;;1.77;1.37;;;;;;;;;;4165344;34;20154;-65
2021/05/06 16:30:41;;;;;;;2.78;1.83;;;;;;;;;;4152771;34;20613;-63
2021/05/06 16:33:10;;;;;;;1.00;1.00;;;;;;;;;;4141601;34;20482;-65
2021/05/06 16:36:00;;;;;;;3.67;1.67;;;;;;;;;;4152714;34;20106;-63
2021/05/06 16:38:28;;;;;;;1.60;1.45;;;;;;;;;;4165141;34;20098;-67
2021/05/06 16:41:08;;;;;;;1.02;1.02;;;;;;;;;;4165351;34;20127;-66
2021/05/06 16:43:58;;;;;;;1.35;1.25;;;;;;;;;;4154348;34;20126;-66
2021/05/06 16:46:23;;;;;;;1.20;1.20;;;;;;;;;;4165003;34;20260;-63
2021/05/06 16:48:49;;;;;;;0.90;0.90;;;;;;;;;;4165293;34;20122;-65
2021/05/06 16:51:16;;;;;;;1.52;1.42;;;;;;;;;;4165234;34;20447;-63
2021/05/06 16:53:43;;;;;;;1.27;1.17;;;;;;;;;;4165097;34;20217;-63
2021/05/06 16:56:10;;;;;;;3.92;1.70;;;;;;;;;;4152536;34;20586;-63
2021/05/06 16:58:48;;;;;;;2.15;1.60;;;;;;;;;;4165137;34;20134;-66
2021/05/06 17:01:15;;;;;;;1.60;1.35;;;;;;;;;;4151869;34;20110;-63
2021/05/06 17:03:41;;;;;;;1.98;1.70;;;;;;;;;;4164733;34;20122;-63
2021/05/06 17:06:07;;;;;;;1.87;1.67;;;;;;;;;;4146810;34;20114;-63
2021/05/06 17:08:49;;;;;;;4.60;1.50;;;;;;;;;;4164533;34;20528;-69
2021/05/06 17:11:16;;;;;;;3.03;1.30;;;;;;;;;;4162287;34;20103;-63
2021/05/06 17:13:42;;;;;;;2.33;1.85;;;;;;;;;;4163115;34;20210;-67
2021/05/06 17:16:09;;;;;;;2.90;1.65;;;;;;;;;;4150935;34;20696;-64
2021/05/06 17:18:37;;;;;;;3.95;1.30;;;;;;;;;;4148046;34;20564;-63
2021/05/06 17:21:08;;;;;;;2.08;1.87;;;;;;;;;;4149709;34;20114;-66
2021/05/06 17:24:14;;;;;;;1.87;1.73;;;;;;;;;;4148980;34;20215;-64
2021/05/06 17:27:22;;;;;;;8.00;2.28;;;;;;;;;;4144846;34;20116;-67
2021/05/06 17:29:50;;;;;;;2.30;2.10;;;;;;;;;;4138222;34;20111;-68
2021/05/06 17:32:28;;;;;;;7.43;3.15;;;;;;;;;;4143977;34;20111;-66
2021/05/06 17:34:58;;;;;;;14.25;4.53;;;;;;;;;;4144555;34;20123;-65
2021/05/06 17:37:30;;;;;;;9.27;3.72;;;;;;;;;;4138027;34;20118;-65
2021/05/06 17:39:57;;;;;;;6.12;3.40;;;;;;;;;;4147976;34;20144;-62
2021/05/06 17:42:39;;;;;;;14.27;4.37;;;;;;;;;;4151385;34;20138;-62
2021/05/06 17:45:09;;;;;;;9.75;4.20;;;;;;;;;;4149947;34;20223;-66
2021/05/06 17:47:36;;;;;;;8.13;3.60;;;;;;;;;;4147757;34;20548;-66
2021/05/06 17:50:04;;;;;;;10.65;4.35;;;;;;;;;;4136482;34;20219;-62
2021/05/06 17:52:31;;;;;;;13.50;5.05;;;;;;;;;;4136507;34;20562;-64
2021/05/06 17:55:01;;;;;;;12.48;5.20;;;;;;;;;;4136527;34;20219;-64
2021/05/06 17:57:34;;;;;;;16.60;5.72;;;;;;;;;;4137822;34;20122;-67
2021/05/06 18:00:29;;;;;;;24.58;7.20;;;;;;;;;;4136543;34;20111;-67
2021/05/06 18:03:02;;;;;;;16.70;6.30;;;;;;;;;;4137797;34;20108;-67
2021/05/06 18:05:35;;;;;;;13.45;6.37;;;;;;;;;;4144493;34;20099;-67
2021/05/06 18:08:05;;;;;;;17.30;6.55;;;;;;;;;;4143453;34;20195;-66
2021/05/06 18:13:11;;;;;;;6.87;3.70;;;;;;;;;;4137381;34;20119;-63
2021/05/06 18:15:42;;;;;;;10.07;3.65;;;;;;;;;;4137362;34;20119;-67
2021/05/06 18:18:08;;;;;;;5.20;3.25;;;;;;;;;;4136061;34;20208;-64
2021/05/06 18:20:34;;;;;;;5.30;3.22;;;;;;;;;;4137271;34;20134;-67
2021/05/06 18:23:00;;;;;;;11.75;5.30;;;;;;;;;;4144980;34;20561;-67
2021/05/06 18:25:26;;;;;;;5.53;3.50;;;;;;;;;;4151863;34;20133;-63
2021/05/06 18:28:00;;;;;;;7.78;3.55;;;;;;;;;;4148312;34;20134;-64